SKRH/RCH METAR and TAF weather

Enter ICAO airport designator
Station Type Date Time Source
SKRH METAR 2019/02/22 22:00 UTC NOAA

SKRH 222200Z 10016KT CAVOK 32/19 A2981


Station Type Date Time Source
SKRH Decoded METAR 2019/02/22 22:00 UTC NOAA

Riohacha / Almirante Padilla, Colombia (SKRH) 11-32N 072-56W 4M
Feb 22, 2019 - 05:00 PM EST / 2019.02.22 2200 UTC
Wind: from the E (100 degrees) at 18 MPH (16 KT):0
Visibility: greater than 7 mile(s):0
Temperature: 89 F (32 C)
Dew Point: 66 F (19 C)
Relative Humidity: 46%
Pressure (altimeter): 29.81 in. Hg (1009 hPa)
ob: SKRH 222200Z 10016KT CAVOK 32/19 A2981
cycle: 22

Station Type Date Time Source
SKRH TAF 2015/07/31 18:51 UTC NOAA

TAF SKRH 311700Z 3118/0118 07010KT 9999 SCT017
TEMPO 3120/0103 09015KT CAVOK
TEMPO 0109/0114 9000 BKN015 TX36/3118Z TN28/0110Z


Example: see airport list